Time;durP1;ratioP1;P1;durP2;ratioP2;P2;SDS_P1;SDS_P2;PMS_P1;PMS_P2;Temp;Humidity;BMP_temperature;BMP_pressure;BME280_temperature;BME280_humidity;BME280_pressure;Samples;Min_cycle;Max_cycle;Signal;HPM_P1;HPM_P2
2021/01/04 00:01:08;;;;;;;14.85;4.88;;;3.60;99.90;;;;;;5049476;28;20051;-78
2021/01/04 00:03:56;;;;;;;11.70;5.75;;;3.60;99.90;;;;;;5049486;28;20059;-81
2021/01/04 00:06:47;;;;;;;10.55;5.97;;;3.60;99.90;;;;;;5049197;28;20024;-82
2021/01/04 00:09:39;;;;;;;15.00;6.18;;;3.70;99.90;;;;;;5049372;28;20029;-80
2021/01/04 00:12:29;;;;;;;22.70;8.45;;;3.70;99.90;;;;;;5041094;28;20029;-81
2021/01/04 00:15:19;;;;;;;19.10;9.27;;;3.80;99.90;;;;;;5050540;28;20025;-80
2021/01/04 00:18:21;;;;;;;18.73;8.75;;;3.80;99.90;;;;;;5050711;28;20032;-81
2021/01/04 00:21:07;;;;;;;21.02;7.63;;;3.80;99.90;;;;;;5048978;28;20553;-81
2021/01/04 00:23:51;;;;;;;27.00;8.35;;;3.80;99.90;;;;;;5050572;28;20228;-80
2021/01/04 00:26:47;;;;;;;20.02;7.43;;;3.90;99.90;;;;;;5049194;28;20467;-81
2021/01/04 00:29:14;;;;;;;17.42;6.50;;;3.90;99.90;;;;;;5039085;28;20146;-79
2021/01/04 00:31:46;;;;;;;17.92;7.50;;;4.00;99.90;;;;;;5048790;28;20075;-81
2021/01/04 00:34:21;;;;;;;15.65;5.90;;;4.00;99.90;;;;;;5048991;28;20037;-79
2021/01/04 00:37:22;;;;;;;16.33;6.35;;;4.00;99.90;;;;;;5048858;28;20431;-80
2021/01/04 00:40:11;;;;;;;13.57;4.20;;;4.00;99.90;;;;;;5049833;28;20041;-80
2021/01/04 00:42:44;;;;;;;6.90;2.78;;;4.00;99.90;;;;;;5048909;28;20021;-82
2021/01/04 00:45:26;;;;;;;10.68;2.67;;;3.90;99.90;;;;;;5049994;28;20504;-80
2021/01/04 00:48:04;;;;;;;11.68;2.30;;;3.90;99.90;;;;;;5050347;28;20048;-81
2021/01/04 00:51:03;;;;;;;8.32;2.30;;;3.80;99.90;;;;;;5048883;28;20029;-80
2021/01/04 00:53:40;;;;;;;;;;;3.80;99.90;;;;;;5049161;28;20073;-78
2021/01/04 00:56:12;;;;;;;4.45;2.00;;;3.80;99.90;;;;;;5048527;28;19912;-79
2021/01/04 00:58:56;;;;;;;7.20;2.20;;;3.80;99.90;;;;;;5048438;28;20021;-81
2021/01/04 01:01:29;;;;;;;8.38;2.55;;;3.80;99.90;;;;;;5047916;28;20037;-81
2021/01/04 01:04:16;;;;;;;10.05;2.92;;;3.80;99.90;;;;;;5048523;28;20032;-80
2021/01/04 01:07:05;;;;;;;6.90;2.33;;;3.80;99.90;;;;;;5048512;28;20465;-81
2021/01/04 01:09:36;;;;;;;7.93;3.15;;;3.80;99.90;;;;;;5049594;28;20056;-80
2021/01/04 01:12:35;;;;;;;15.00;4.57;;;3.80;99.90;;;;;;5048198;28;20595;-81
2021/01/04 01:15:18;;;;;;;8.48;2.40;;;3.80;99.90;;;;;;5048189;28;20040;-80
2021/01/04 01:18:06;;;;;;;11.30;2.63;;;3.80;99.90;;;;;;5047921;28;20531;-82
2021/01/04 01:20:36;;;;;;;7.93;2.50;;;3.80;99.90;;;;;;5048051;28;20032;-80
2021/01/04 01:23:01;;;;;;;8.80;3.22;;;3.80;99.90;;;;;;5047954;28;20025;-81
2021/01/04 01:25:34;;;;;;;7.80;2.47;;;3.70;99.90;;;;;;5031639;28;20028;-79
2021/01/04 01:28:39;;;;;;;5.32;2.88;;;3.60;99.90;;;;;;5048110;28;20418;-80
2021/01/04 01:31:33;;;;;;;7.57;3.50;;;3.50;99.90;;;;;;5047752;28;20075;-78
2021/01/04 01:34:26;;;;;;;9.63;3.40;;;3.50;99.90;;;;;;5049175;28;20032;-81
2021/01/04 01:37:05;;;;;;;10.18;4.05;;;3.50;99.90;;;;;;5047824;28;20029;-80
2021/01/04 01:39:46;;;;;;;12.85;4.68;;;3.50;99.90;;;;;;5047646;28;20036;-81
2021/01/04 01:42:59;;;;;;;8.80;4.65;;;3.50;99.90;;;;;;5047544;28;20033;-81
2021/01/04 01:45:58;;;;;;;11.80;4.43;;;3.60;99.90;;;;;;5031681;28;20032;-81
2021/01/04 01:48:35;;;;;;;11.68;4.93;;;3.60;99.90;;;;;;5043594;28;20063;-81
2021/01/04 01:51:04;;;;;;;27.55;6.20;;;3.60;99.90;;;;;;5047480;28;20426;-80
2021/01/04 01:53:57;;;;;;;13.43;5.00;;;3.60;99.90;;;;;;5047340;28;20025;-81
2021/01/04 01:56:48;;;;;;;17.05;6.00;;;3.60;99.90;;;;;;5047296;28;20032;-80
2021/01/04 01:59:22;;;;;;;13.23;4.80;;;3.60;99.90;;;;;;5047425;28;20045;-79
2021/01/04 02:02:21;;;;;;;14.20;5.53;;;3.70;99.90;;;;;;5047115;28;20094;-81
2021/01/04 02:05:22;;;;;;;15.73;4.60;;;3.70;99.90;;;;;;5047453;28;20028;-80
2021/01/04 02:07:59;;;;;;;10.90;4.68;;;3.80;99.90;;;;;;5047159;28;20032;-80
2021/01/04 02:10:32;;;;;;;15.18;4.90;;;3.80;99.90;;;;;;5046988;28;20035;-81
2021/01/04 02:13:10;;;;;;;13.65;4.45;;;3.90;99.90;;;;;;5048539;28;20399;-82
2021/01/04 02:15:51;;;;;;;12.95;4.28;;;3.90;99.90;;;;;;5048382;28;20057;-82
2021/01/04 02:18:42;;;;;;;11.32;4.43;;;3.90;99.90;;;;;;5047164;28;20033;-82
2021/01/04 02:21:47;;;;;;;14.30;4.53;;;3.90;99.90;;;;;;5046787;28;20028;-80
2021/01/04 02:24:21;;;;;;;13.35;4.47;;;3.80;99.90;;;;;;5046792;28;20025;-80
2021/01/04 02:27:06;;;;;;;17.77;5.20;;;3.80;99.90;;;;;;5046821;28;20021;-80
2021/01/04 02:29:32;;;;;;;11.85;2.80;;;3.80;99.90;;;;;;5046850;28;20021;-79
2021/01/04 02:32:02;;;;;;;11.55;4.38;;;3.80;99.90;;;;;;5030346;28;20033;-82
2021/01/04 02:34:30;;;;;;;;;;;3.80;99.90;;;;;;5047299;28;20549;-81
2021/01/04 02:36:57;;;;;;;13.18;4.18;;;3.80;99.90;;;;;;5046682;28;19944;-80
2021/01/04 02:39:33;;;;;;;14.45;4.65;;;3.80;99.90;;;;;;5046647;28;20119;-80
2021/01/04 02:42:07;;;;;;;9.43;4.10;;;3.80;99.90;;;;;;5047721;28;20025;-82
2021/01/04 02:44:33;;;;;;;15.35;4.57;;;3.90;99.90;;;;;;5046595;28;20103;-81
2021/01/04 02:47:14;;;;;;;14.68;4.40;;;3.80;99.90;;;;;;5030017;28;20051;-81
2021/01/04 02:49:58;;;;;;;11.20;4.38;;;3.70;99.90;;;;;;5046715;28;20064;-80
2021/01/04 02:53:03;;;;;;;12.35;5.22;;;3.70;99.90;;;;;;5046429;28;20519;-81
2021/01/04 02:55:54;;;;;;;7.80;3.65;;;3.60;99.90;;;;;;5046547;28;20033;-81
2021/01/04 02:58:34;;;;;;;12.52;4.47;;;3.60;99.90;;;;;;5046529;28;20503;-80
2021/01/04 03:01:21;;;;;;;27.33;4.88;;;3.50;99.90;;;;;;5046047;28;20049;-81
2021/01/04 03:03:48;;;;;;;10.40;3.30;;;3.50;99.90;;;;;;5047896;28;20031;-79
2021/01/04 03:06:18;;;;;;;8.18;3.25;;;3.50;99.90;;;;;;5029857;28;20031;-81
2021/01/04 03:08:44;;;;;;;11.75;3.42;;;3.50;99.90;;;;;;5046434;28;20029;-81
2021/01/04 03:11:15;;;;;;;14.18;3.90;;;3.40;99.90;;;;;;5029698;28;20143;-81
2021/01/04 03:13:53;;;;;;;10.40;3.17;;;3.40;99.90;;;;;;5048023;28;20032;-82
2021/01/04 03:16:44;;;;;;;8.95;3.28;;;3.30;99.90;;;;;;5046582;28;20032;-81
2021/01/04 03:19:16;;;;;;;13.38;3.25;;;3.20;99.90;;;;;;5046297;28;20021;-79
2021/01/04 03:21:41;;;;;;;8.60;3.35;;;3.20;99.90;;;;;;5046145;28;20029;-81
2021/01/04 03:24:16;;;;;;;6.53;2.92;;;3.20;99.90;;;;;;5032946;28;20029;-81
2021/01/04 03:26:51;;;;;;;13.15;4.22;;;3.20;99.90;;;;;;5050148;28;20053;-78
2021/01/04 03:29:17;;;;;;;8.10;4.03;;;3.30;99.90;;;;;;5050108;28;20075;-82
2021/01/04 03:31:43;;;;;;;11.50;3.88;;;3.40;99.90;;;;;;5051383;28;20029;-78
2021/01/04 03:34:09;;;;;;;13.60;3.85;;;3.40;99.90;;;;;;5050019;28;20384;-80
2021/01/04 03:36:34;;;;;;;16.55;4.20;;;3.50;99.90;;;;;;5033509;28;20029;-81
2021/01/04 03:39:00;;;;;;;17.80;4.38;;;3.50;99.90;;;;;;5033453;28;20053;-80
2021/01/04 03:41:29;;;;;;;10.15;3.70;;;3.50;99.90;;;;;;5033145;28;20048;-81
2021/01/04 03:43:55;;;;;;;10.73;3.20;;;3.60;99.90;;;;;;5050054;28;20488;-81
2021/01/04 03:46:21;;;;;;;11.95;4.10;;;3.60;99.90;;;;;;5049872;28;20102;-79
2021/01/04 03:48:46;;;;;;;12.18;4.00;;;3.60;99.90;;;;;;5049792;28;20024;-81
2021/01/04 03:51:12;;;;;;;8.70;3.72;;;3.60;99.90;;;;;;5016746;28;20387;-79
2021/01/04 03:53:41;;;;;;;9.45;3.83;;;3.50;99.90;;;;;;5049942;28;20029;-81
2021/01/04 03:56:07;;;;;;;11.27;2.90;;;3.50;99.90;;;;;;5049681;28;20048;-80
2021/01/04 03:58:33;;;;;;;11.23;3.97;;;3.50;99.90;;;;;;5049742;28;20071;-81
2021/01/04 04:00:58;;;;;;;18.33;4.03;;;3.50;99.90;;;;;;5016223;28;20431;-81
2021/01/04 04:03:24;;;;;;;13.45;3.80;;;3.40;99.90;;;;;;5016550;28;20029;-80
2021/01/04 04:05:50;;;;;;;13.98;3.90;;;3.40;99.90;;;;;;5016429;28;20382;-81
2021/01/04 04:08:15;;;;;;;9.52;3.88;;;3.40;99.90;;;;;;5032990;28;20032;-81
2021/01/04 04:10:41;;;;;;;7.72;3.88;;;3.40;99.90;;;;;;5016380;28;20487;-80
2021/01/04 04:13:06;;;;;;;9.52;4.10;;;3.40;99.90;;;;;;5032874;28;20064;-79
2021/01/04 04:15:32;;;;;;;9.90;3.00;;;3.40;99.90;;;;;;5016490;28;20032;-80
2021/01/04 04:17:58;;;;;;;11.23;3.05;;;3.30;99.90;;;;;;5032865;28;20495;-80
2021/01/04 04:20:25;;;;;;;8.88;2.75;;;3.20;99.90;;;;;;5032582;28;20025;-80
2021/01/04 04:22:53;;;;;;;9.45;2.95;;;3.20;99.90;;;;;;5032883;28;20037;-80
2021/01/04 04:25:20;;;;;;;12.10;3.10;;;3.10;99.90;;;;;;5049143;28;20028;-81
2021/01/04 04:27:46;;;;;;;13.25;3.35;;;3.10;99.90;;;;;;5049236;28;20112;-79
2021/01/04 04:30:16;;;;;;;9.85;3.30;;;3.00;99.90;;;;;;5032515;28;20487;-80
2021/01/04 04:32:42;;;;;;;12.60;3.38;;;3.00;99.90;;;;;;5050105;28;20070;-81
2021/01/04 04:35:09;;;;;;;11.38;3.65;;;2.90;99.90;;;;;;5048620;28;20040;-81
2021/01/04 04:37:35;;;;;;;14.15;3.00;;;2.90;99.90;;;;;;5032296;28;20036;-81
2021/01/04 04:40:01;;;;;;;11.13;3.50;;;2.90;99.90;;;;;;5048890;28;20029;-80
2021/01/04 04:42:27;;;;;;;12.88;4.03;;;2.90;99.90;;;;;;5032104;28;20029;-80
2021/01/04 04:45:05;;;;;;;11.85;3.90;;;2.90;99.90;;;;;;5032333;28;20127;-80
2021/01/04 04:47:46;;;;;;;9.55;3.60;;;2.80;99.90;;;;;;5048744;28;20025;-81
2021/01/04 04:50:34;;;;;;;13.30;4.88;;;2.80;99.90;;;;;;5048640;28;20067;-78
2021/01/04 04:53:12;;;;;;;16.75;5.10;;;2.80;99.90;;;;;;5048693;28;20056;-81
2021/01/04 04:55:54;;;;;;;8.25;4.10;;;2.70;99.90;;;;;;5049827;28;20017;-82
2021/01/04 04:58:34;;;;;;;14.63;4.35;;;2.70;99.90;;;;;;5049854;28;20109;-80
2021/01/04 05:01:31;;;;;;;16.13;5.35;;;2.80;99.90;;;;;;5048025;28;20045;-79
2021/01/04 05:04:24;;;;;;;12.05;4.40;;;2.80;99.90;;;;;;5048618;28;20446;-79
2021/01/04 05:06:58;;;;;;;15.85;4.90;;;2.80;99.90;;;;;;5049558;28;20017;-81
2021/01/04 05:09:36;;;;;;;16.27;5.38;;;2.80;99.90;;;;;;5048394;28;20511;-78
2021/01/04 05:12:17;;;;;;;15.07;6.05;;;2.80;99.90;;;;;;5048387;28;20029;-80
2021/01/04 05:15:08;;;;;;;13.60;5.63;;;2.70;99.90;;;;;;5048254;28;20029;-82
2021/01/04 05:17:44;;;;;;;13.15;5.18;;;2.60;99.90;;;;;;5048343;28;20052;-80
2021/01/04 05:20:31;;;;;;;16.42;5.60;;;2.60;99.90;;;;;;5048047;28;20125;-82
2021/01/04 05:23:06;;;;;;;13.27;5.80;;;2.50;99.90;;;;;;5047998;28;20117;-81
2021/01/04 05:25:58;;;;;;;12.88;6.38;;;2.40;99.90;;;;;;5049372;28;20029;-82
2021/01/04 05:28:42;;;;;;;18.02;6.82;;;2.30;99.90;;;;;;5046880;28;20029;-81
2021/01/04 05:31:31;;;;;;;14.95;5.90;;;2.30;99.90;;;;;;5047895;28;20033;-82
2021/01/04 05:34:19;;;;;;;10.85;5.63;;;2.20;99.90;;;;;;5047841;28;20021;-78
2021/01/04 05:36:53;;;;;;;11.88;6.10;;;2.20;99.90;;;;;;5049615;28;20033;-81
2021/01/04 05:39:21;;;;;;;23.35;7.28;;;2.10;99.90;;;;;;5047788;28;20033;-82
2021/01/04 05:42:24;;;;;;;18.42;7.05;;;2.10;99.90;;;;;;5047591;28;20578;-80
2021/01/04 05:44:57;;;;;;;17.02;6.20;;;2.10;99.90;;;;;;5047206;28;20488;-79
2021/01/04 05:47:26;;;;;;;16.55;6.53;;;2.10;99.90;;;;;;5047378;28;20025;-79
2021/01/04 05:50:23;;;;;;;13.02;6.57;;;2.00;99.90;;;;;;5047536;28;20111;-81
2021/01/04 05:52:53;;;;;;;14.35;5.82;;;2.00;99.90;;;;;;5048413;28;20040;-80
2021/01/04 05:55:18;;;;;;;;;;;2.00;99.90;;;;;;5047971;28;20035;-80
2021/01/04 05:57:50;;;;;;;13.90;6.07;;;2.00;99.90;;;;;;5048620;28;19999;-81
2021/01/04 06:00:45;;;;;;;20.98;5.82;;;2.00;99.90;;;;;;5047102;28;20365;-82
2021/01/04 06:03:22;;;;;;;18.35;6.25;;;2.00;99.90;;;;;;5042799;28;20435;-80
2021/01/04 06:05:50;;;;;;;23.95;5.78;;;2.00;99.90;;;;;;5047305;28;20060;-80
2021/01/04 06:08:25;;;;;;;13.23;5.40;;;1.90;99.90;;;;;;5047286;28;20029;-81
2021/01/04 06:11:14;;;;;;;13.65;6.05;;;2.00;99.90;;;;;;5047157;28;20025;-80
2021/01/04 06:13:45;;;;;;;19.15;6.30;;;2.00;99.90;;;;;;5046854;28;20033;-81
2021/01/04 06:16:23;;;;;;;23.95;5.65;;;2.00;99.90;;;;;;5047091;28;20029;-80
2021/01/04 06:18:54;;;;;;;12.55;5.68;;;2.10;99.90;;;;;;5047054;28;20039;-79
2021/01/04 06:21:31;;;;;;;15.52;5.30;;;2.20;99.90;;;;;;5046921;28;20110;-81
2021/01/04 06:24:01;;;;;;;11.70;4.15;;;2.30;99.90;;;;;;5047053;28;20025;-79
2021/01/04 06:26:27;;;;;;;17.15;4.63;;;2.40;99.90;;;;;;5046755;28;20054;-80
2021/01/04 06:29:11;;;;;;;14.13;4.97;;;2.50;99.90;;;;;;5046944;28;20017;-79
2021/01/04 06:31:52;;;;;;;13.25;4.13;;;2.50;99.90;;;;;;5030193;28;20480;-81
2021/01/04 06:34:23;;;;;;;11.80;3.80;;;2.50;99.90;;;;;;5048085;28;20380;-81
2021/01/04 06:36:56;;;;;;;12.23;4.25;;;2.50;99.90;;;;;;5046774;28;20039;-80
2021/01/04 06:39:33;;;;;;;11.52;3.70;;;2.40;99.90;;;;;;5048350;28;20100;-78
2021/01/04 06:42:34;;;;;;;12.82;4.07;;;2.40;99.90;;;;;;5047865;28;20052;-80
2021/01/04 06:45:39;;;;;;;8.63;3.80;;;2.30;99.90;;;;;;5047381;28;20025;-81
2021/01/04 06:48:15;;;;;;;11.52;3.90;;;2.30;99.90;;;;;;5047413;28;20029;-79
2021/01/04 06:51:20;;;;;;;15.43;5.60;;;2.20;99.90;;;;;;5046563;28;20025;-81
2021/01/04 06:54:14;;;;;;;13.25;3.75;;;2.20;99.90;;;;;;5046873;28;20084;-78
2021/01/04 06:56:55;;;;;;;20.15;4.35;;;2.20;99.90;;;;;;5047660;28;20108;-79
2021/01/04 06:59:35;;;;;;;14.13;4.45;;;2.20;99.90;;;;;;5030410;28;20021;-81
2021/01/04 07:02:19;;;;;;;8.88;3.78;;;2.20;99.90;;;;;;5046047;28;20045;-80
2021/01/04 07:05:13;;;;;;;16.00;4.43;;;2.20;99.90;;;;;;5046496;28;20027;-82
2021/01/04 07:07:48;;;;;;;10.70;3.78;;;2.20;99.90;;;;;;5046371;28;20021;-79
2021/01/04 07:10:22;;;;;;;11.70;4.35;;;2.30;99.90;;;;;;5046443;28;20470;-81
2021/01/04 07:13:11;;;;;;;10.75;3.75;;;2.40;99.90;;;;;;5046445;28;20067;-83
2021/01/04 07:16:03;;;;;;;16.90;4.03;;;2.40;99.90;;;;;;5046390;28;20025;-80
2021/01/04 07:18:47;;;;;;;15.18;4.53;;;2.40;99.90;;;;;;5046495;28;20563;-80
2021/01/04 07:21:27;;;;;;;13.43;3.95;;;2.40;99.90;;;;;;5046070;28;20057;-83
2021/01/04 07:24:25;;;;;;;9.38;3.22;;;2.40;99.90;;;;;;5046521;28;20052;-80
2021/01/04 07:26:54;;;;;;;18.55;4.63;;;2.50;99.90;;;;;;5047600;28;20199;-80
2021/01/04 07:29:57;;;;;;;15.80;3.83;;;2.60;99.90;;;;;;5046271;28;20044;-79
2021/01/04 07:32:29;;;;;;;12.00;3.72;;;2.70;99.90;;;;;;5046429;28;20025;-83
2021/01/04 07:35:00;;;;;;;10.02;3.25;;;2.80;99.90;;;;;;5046539;28;20032;-83
2021/01/04 07:37:41;;;;;;;10.10;2.63;;;2.80;99.90;;;;;;5046664;28;20025;-81
2021/01/04 07:40:44;;;;;;;16.67;3.42;;;2.90;99.90;;;;;;5047649;28;20024;-82
2021/01/04 07:43:28;;;;;;;12.80;2.70;;;2.90;99.90;;;;;;5047718;28;20434;-82
2021/01/04 07:46:37;;;;;;;8.25;3.22;;;3.00;99.90;;;;;;5045926;28;20559;-80
2021/01/04 07:49:37;;;;;;;11.15;2.90;;;3.00;99.90;;;;;;5045920;28;20407;-82
2021/01/04 07:52:12;;;;;;;12.13;3.58;;;3.10;99.90;;;;;;5046086;28;20484;-80
2021/01/04 07:54:43;;;;;;;11.73;2.70;;;3.10;99.90;;;;;;5046671;28;20017;-82
2021/01/04 07:57:39;;;;;;;17.83;3.20;;;3.10;99.90;;;;;;5046108;28;20071;-79
2021/01/04 08:00:33;;;;;;;19.05;3.47;;;3.10;99.90;;;;;;5046018;28;20055;-79
2021/01/04 08:03:35;;;;;;;13.65;3.38;;;3.20;99.90;;;;;;5045874;28;20108;-81
2021/01/04 08:06:23;;;;;;;13.82;3.10;;;3.20;99.90;;;;;;5045964;28;20029;-78
2021/01/04 08:09:06;;;;;;;9.80;3.08;;;3.20;99.90;;;;;;5048129;28;20029;-83
2021/01/04 08:12:07;;;;;;;11.80;3.13;;;3.20;99.90;;;;;;5049448;28;20033;-80
2021/01/04 08:15:16;;;;;;;12.45;2.97;;;3.20;99.90;;;;;;5031767;28;20037;-81
2021/01/04 08:17:46;;;;;;;13.48;3.42;;;3.20;99.90;;;;;;5049142;28;20029;-79
2021/01/04 08:20:12;;;;;;;;;;;3.20;99.90;;;;;;5049376;28;20110;-81
2021/01/04 08:22:57;;;;;;;12.57;2.92;;;3.30;99.90;;;;;;5049131;28;20227;-82
2021/01/04 08:25:28;;;;;;;11.50;3.15;;;3.30;99.90;;;;;;5050172;28;20075;-80
2021/01/04 08:28:31;;;;;;;8.85;2.88;;;3.30;99.90;;;;;;5049578;28;20025;-79
2021/01/04 08:31:17;;;;;;;18.92;4.70;;;3.30;99.90;;;;;;5050505;28;20090;-79
2021/01/04 08:33:51;;;;;;;13.23;2.80;;;3.30;99.90;;;;;;5049164;28;20046;-82
2021/01/04 08:36:19;;;;;;;9.40;3.05;;;3.30;99.90;;;;;;5049168;28;20476;-80
2021/01/04 08:38:46;;;;;;;12.47;2.77;;;3.30;99.90;;;;;;5049003;28;20029;-81
2021/01/04 08:41:20;;;;;;;10.88;3.53;;;3.30;99.90;;;;;;5049040;28;20291;-83
2021/01/04 08:43:49;;;;;;;11.30;3.03;;;3.30;99.90;;;;;;5050268;28;20028;-81
2021/01/04 08:46:18;;;;;;;6.85;2.88;;;3.30;99.90;;;;;;5049405;28;20021;-84
2021/01/04 08:48:44;;;;;;;10.15;3.15;;;3.30;99.90;;;;;;5049224;28;20045;-79
2021/01/04 08:51:25;;;;;;;12.40;3.15;;;3.40;99.90;;;;;;5031832;28;20387;-81
2021/01/04 08:53:56;;;;;;;16.70;2.92;;;3.40;99.90;;;;;;5050233;28;20025;-83
2021/01/04 08:56:22;;;;;;;9.55;2.97;;;3.40;99.90;;;;;;5049356;28;20387;-79
2021/01/04 08:58:48;;;;;;;12.85;2.80;;;3.40;99.90;;;;;;5049166;28;20055;-81
2021/01/04 09:01:19;;;;;;;10.70;2.85;;;3.50;99.90;;;;;;5015251;28;20037;-85
2021/01/04 09:03:46;;;;;;;10.13;2.70;;;3.50;99.90;;;;;;5049719;28;20040;-81
2021/01/04 09:06:26;;;;;;;9.98;3.42;;;3.60;99.90;;;;;;5048382;28;20056;-79
2021/01/04 09:09:08;;;;;;;12.93;2.35;;;3.70;99.90;;;;;;5048562;28;20394;-83
2021/01/04 09:11:57;;;;;;;8.65;2.38;;;3.70;99.90;;;;;;5049013;28;20090;-84
2021/01/04 09:14:37;;;;;;;12.27;2.10;;;3.80;99.90;;;;;;5048440;28;20029;-84
2021/01/04 09:17:33;;;;;;;11.02;2.03;;;3.80;99.90;;;;;;5049784;28;20033;-83
2021/01/04 09:20:25;;;;;;;7.90;2.60;;;3.90;99.90;;;;;;5034834;28;20043;-80
2021/01/04 09:23:06;;;;;;;11.27;2.85;;;4.00;99.90;;;;;;5049855;28;20376;-79
2021/01/04 09:25:52;;;;;;;14.32;2.50;;;4.00;99.90;;;;;;5049376;28;20025;-79
2021/01/04 09:28:21;;;;;;;13.35;2.38;;;4.10;99.90;;;;;;5048958;28;20040;-82
2021/01/04 09:30:47;;;;;;;16.57;2.57;;;4.20;99.90;;;;;;5050005;28;20055;-80
2021/01/04 09:33:19;;;;;;;23.58;3.42;;;4.20;99.90;;;;;;5032302;28;20545;-76
2021/01/04 09:35:45;;;;;;;8.30;1.75;;;4.30;99.90;;;;;;5049857;28;20025;-79
2021/01/04 09:38:25;;;;;;;8.80;2.17;;;4.40;99.90;;;;;;5050348;28;20022;-81
2021/01/04 09:40:58;;;;;;;9.10;1.98;;;4.40;99.90;;;;;;5048097;28;20033;-83
2021/01/04 09:43:26;;;;;;;10.70;2.33;;;4.50;99.90;;;;;;5051572;28;20108;-79
2021/01/04 09:45:52;;;;;;;10.77;2.05;;;4.60;99.90;;;;;;5049232;28;20028;-79
2021/01/04 09:48:33;;;;;;;8.70;1.85;;;4.60;99.90;;;;;;5049600;28;20045;-79
2021/01/04 09:51:08;;;;;;;11.20;1.85;;;4.50;99.90;;;;;;5049964;28;20101;-77
2021/01/04 09:53:36;;;;;;;9.13;2.08;;;4.50;99.90;;;;;;5048590;28;20029;-84
2021/01/04 09:56:05;;;;;;;9.73;1.88;;;4.50;99.90;;;;;;5046946;28;20490;-81
2021/01/04 09:58:31;;;;;;;6.53;1.95;;;4.60;99.90;;;;;;5047323;28;20092;-81
2021/01/04 10:01:17;;;;;;;9.68;2.50;;;4.90;99.90;;;;;;5046983;28;20473;-82
2021/01/04 10:03:55;;;;;;;7.97;1.45;;;5.40;99.90;;;;;;5048384;28;20044;-82
2021/01/04 10:06:23;;;;;;;4.93;1.40;;;6.00;99.90;;;;;;5047476;28;20021;-85
2021/01/04 10:08:50;;;;;;;11.63;2.20;;;6.40;99.90;;;;;;5030551;28;20773;-81
2021/01/04 10:11:19;;;;;;;5.88;1.35;;;6.40;99.90;;;;;;5048031;28;20032;-83
2021/01/04 10:13:46;;;;;;;8.70;1.83;;;6.20;99.90;;;;;;5048253;28;20036;-82
2021/01/04 10:16:19;;;;;;;13.40;1.50;;;6.00;99.90;;;;;;5046722;28;20035;-79
2021/01/04 10:18:53;;;;;;;6.78;1.55;;;5.80;99.90;;;;;;5046603;28;20033;-82
2021/01/04 10:21:44;;;;;;;5.57;1.60;;;5.60;99.90;;;;;;5046266;28;20028;-82
2021/01/04 10:24:18;;;;;;;6.93;1.83;;;5.50;99.90;;;;;;5046225;28;20072;-79
2021/01/04 10:26:48;;;;;;;6.75;1.40;;;5.40;99.90;;;;;;5047844;28;20032;-82
2021/01/04 10:29:15;;;;;;;;;;;5.40;99.90;;;;;;5046759;28;20047;-78
2021/01/04 10:31:41;;;;;;;15.57;1.52;;;5.50;99.90;;;;;;5047671;28;20255;-78
2021/01/04 10:34:18;;;;;;;10.63;2.03;;;5.50;99.90;;;;;;5030043;28;20039;-80
2021/01/04 10:37:01;;;;;;;7.10;2.22;;;5.50;99.90;;;;;;5046227;28;20115;-81
2021/01/04 10:39:34;;;;;;;11.25;2.00;;;5.50;99.90;;;;;;5047750;28;20024;-81
2021/01/04 10:42:18;;;;;;;12.13;1.80;;;5.50;99.90;;;;;;5047243;28;20032;-81
2021/01/04 10:44:44;;;;;;;5.63;1.40;;;5.50;99.90;;;;;;5046332;28;20219;-82
2021/01/04 10:47:17;;;;;;;11.52;2.10;;;5.60;99.90;;;;;;5029826;28;20025;-79
2021/01/04 10:49:44;;;;;;;7.25;1.55;;;5.60;99.90;;;;;;5047573;28;20037;-81
2021/01/04 10:52:22;;;;;;;11.05;2.15;;;5.60;99.90;;;;;;5029563;28;20029;-81
2021/01/04 10:54:48;;;;;;;9.30;2.00;;;5.60;99.90;;;;;;5046366;28;20029;-80
2021/01/04 10:57:41;;;;;;;6.90;1.70;;;5.50;99.90;;;;;;5029429;28;20040;-81
2021/01/04 11:00:07;;;;;;;14.38;5.35;;;5.40;99.90;;;;;;5047286;28;20028;-80
2021/01/04 11:02:40;;;;;;;6.65;2.72;;;5.40;99.90;;;;;;5045815;28;20110;-79
2021/01/04 11:05:07;;;;;;;12.38;2.30;;;5.60;99.90;;;;;;5046017;28;20100;-80
2021/01/04 11:07:33;;;;;;;9.38;2.03;;;6.30;99.90;;;;;;5045784;28;20391;-81
2021/01/04 11:10:31;;;;;;;10.88;2.40;;;6.80;99.90;;;;;;5045400;28;20027;-79
2021/01/04 11:12:59;;;;;;;13.20;2.88;;;7.50;99.90;;;;;;5017740;28;20427;-79
2021/01/04 11:15:36;;;;;;;14.05;2.13;;;8.30;99.90;;;;;;5045980;28;20021;-79
2021/01/04 11:18:12;;;;;;;6.55;1.70;;;8.90;99.90;;;;;;5045790;28;20079;-81
2021/01/04 11:20:40;;;;;;;11.30;2.40;;;8.80;99.90;;;;;;5046973;28;20021;-80
2021/01/04 11:23:14;;;;;;;6.97;1.27;;;8.50;99.90;;;;;;5045854;28;20515;-80
2021/01/04 11:25:41;;;;;;;6.57;1.70;;;8.10;99.90;;;;;;5047658;28;20029;-82
2021/01/04 11:28:07;;;;;;;6.90;1.50;;;7.80;99.90;;;;;;5029205;28;20116;-83
2021/01/04 11:30:33;;;;;;;14.07;2.13;;;7.50;99.90;;;;;;5029395;28;20101;-79
2021/01/04 11:33:00;;;;;;;7.20;1.35;;;7.30;99.90;;;;;;5045721;28;20128;-80
2021/01/04 11:35:28;;;;;;;8.30;1.75;;;7.10;99.70;;;;;;5045425;28;20035;-82
2021/01/04 11:37:54;;;;;;;6.15;1.45;;;7.00;99.90;;;;;;5045360;28;20025;-78
2021/01/04 11:40:20;;;;;;;9.70;1.40;;;7.00;99.80;;;;;;5045814;28;20068;-82
2021/01/04 11:42:46;;;;;;;5.57;1.17;;;6.80;99.60;;;;;;5029619;28;20041;-80
2021/01/04 11:45:15;;;;;;;4.75;0.82;;;6.60;99.30;;;;;;5034146;28;20052;-80
2021/01/04 11:47:41;;;;;;;3.17;0.80;;;6.20;99.30;;;;;;5053888;28;20070;-80
2021/01/04 11:50:08;;;;;;;2.65;0.70;;;5.80;99.60;;;;;;5054077;28;20037;-79
2021/01/04 11:52:35;;;;;;;3.92;1.10;;;5.60;99.90;;;;;;5052591;28;20522;-80
2021/01/04 11:55:00;;;;;;;5.13;1.25;;;5.50;99.90;;;;;;5053107;28;20178;-82
2021/01/04 11:57:26;;;;;;;4.00;1.00;;;5.70;99.90;;;;;;5036526;28;20056;-79
2021/01/04 11:59:52;;;;;;;8.20;2.35;;;5.80;99.90;;;;;;5054717;28;20155;-79
2021/01/04 12:02:18;;;;;;;8.07;1.50;;;5.80;99.90;;;;;;5051784;28;20049;-80
2021/01/04 12:04:44;;;;;;;12.68;1.33;;;5.70;99.90;;;;;;5052224;28;20060;-81
2021/01/04 12:07:11;;;;;;;2.63;0.70;;;5.60;99.90;;;;;;5052027;28;20070;-79
2021/01/04 12:09:38;;;;;;;6.40;1.10;;;5.40;99.90;;;;;;5036319;28;20047;-80
2021/01/04 12:12:07;;;;;;;4.78;1.00;;;5.30;99.90;;;;;;5052820;28;20059;-81
2021/01/04 12:14:33;;;;;;;;;;;5.10;99.90;;;;;;5036748;28;20025;-79
2021/01/04 12:17:07;;;;;;;2.83;1.20;;;5.10;99.90;;;;;;5034687;28;20309;-79
2021/01/04 12:19:33;;;;;;;6.95;1.20;;;5.00;99.90;;;;;;5050701;28;20376;-82
2021/01/04 12:22:07;;;;;;;6.82;1.33;;;4.90;99.90;;;;;;5050310;28;20032;-79
2021/01/04 12:24:37;;;;;;;4.07;1.27;;;4.90;99.90;;;;;;5052025;28;20043;-81
2021/01/04 12:27:04;;;;;;;6.35;1.80;;;4.90;99.90;;;;;;5033735;28;20063;-81
2021/01/04 12:29:31;;;;;;;8.48;1.30;;;4.80;99.90;;;;;;5049593;28;20041;-82
2021/01/04 12:31:57;;;;;;;5.25;1.75;;;4.90;99.90;;;;;;5050813;28;20383;-81
2021/01/04 12:34:22;;;;;;;9.57;1.63;;;4.90;99.90;;;;;;5017467;28;20366;-80
2021/01/04 12:36:48;;;;;;;5.45;1.27;;;5.00;99.90;;;;;;5050274;28;20359;-81
2021/01/04 12:39:14;;;;;;;7.50;1.92;;;5.10;99.90;;;;;;5016547;28;20226;-81
2021/01/04 12:41:41;;;;;;;8.57;1.70;;;5.20;99.90;;;;;;5032157;28;20036;-82
2021/01/04 12:44:09;;;;;;;6.55;1.45;;;5.20;99.90;;;;;;5032562;28;20472;-83
2021/01/04 12:46:40;;;;;;;6.05;1.42;;;5.30;99.90;;;;;;5032534;28;20025;-80
2021/01/04 12:49:06;;;;;;;7.03;1.40;;;5.40;99.90;;;;;;5048374;28;20014;-81
2021/01/04 12:51:32;;;;;;;7.28;1.80;;;5.40;99.90;;;;;;5031649;28;20083;-83
2021/01/04 12:53:58;;;;;;;6.32;1.67;;;5.40;99.90;;;;;;5032230;28;20033;-83
2021/01/04 12:56:23;;;;;;;9.52;1.63;;;5.50;99.90;;;;;;5032729;28;20155;-83
2021/01/04 12:58:49;;;;;;;4.57;2.13;;;5.60;99.90;;;;;;5033161;28;20144;-81
2021/01/04 13:01:16;;;;;;;12.82;3.20;;;5.60;99.90;;;;;;5049962;28;20053;-82
2021/01/04 13:03:43;;;;;;;19.35;4.55;;;5.50;99.90;;;;;;5017079;28;20057;-81
2021/01/04 13:06:09;;;;;;;14.93;3.30;;;5.50;99.90;;;;;;5048600;28;20037;-82
2021/01/04 13:08:35;;;;;;;16.35;4.22;;;5.50;99.90;;;;;;5031624;28;20029;-82
2021/01/04 13:11:02;;;;;;;12.18;2.75;;;5.50;99.90;;;;;;5047978;28;20060;-81
2021/01/04 13:13:28;;;;;;;14.82;3.13;;;5.40;99.90;;;;;;5049903;28;20440;-81
2021/01/04 13:15:54;;;;;;;11.10;2.30;;;5.40;99.90;;;;;;5032053;28;20025;-82
2021/01/04 13:18:20;;;;;;;13.45;2.85;;;5.40;99.90;;;;;;5047823;28;20025;-80
2021/01/04 13:20:45;;;;;;;9.73;3.60;;;5.30;99.90;;;;;;5031399;28;20040;-81
2021/01/04 13:23:11;;;;;;;18.23;2.35;;;5.30;99.90;;;;;;5031513;28;20407;-82
2021/01/04 13:25:37;;;;;;;9.98;2.17;;;5.30;99.90;;;;;;5031701;28;20040;-82
2021/01/04 13:28:03;;;;;;;11.10;2.80;;;5.40;99.90;;;;;;5047923;28;20044;-83
2021/01/04 13:30:29;;;;;;;10.20;2.15;;;5.40;99.90;;;;;;5049614;28;20048;-80
2021/01/04 13:32:55;;;;;;;14.20;2.80;;;5.50;99.90;;;;;;5047216;28;20029;-81
2021/01/04 13:35:21;;;;;;;11.05;2.20;;;5.60;99.90;;;;;;5031315;28;20055;-82
2021/01/04 13:37:46;;;;;;;8.38;2.05;;;5.70;99.90;;;;;;5048655;28;20029;-81
2021/01/04 13:40:13;;;;;;;10.07;2.17;;;5.80;99.90;;;;;;5047950;28;20029;-80